Time;durP1;ratioP1;P1;durP2;ratioP2;P2;SDS_P1;SDS_P2;PMS_P1;PMS_P2;Temp;Humidity;BMP_temperature;BMP_pressure;BME280_temperature;BME280_humidity;BME280_pressure;Samples;Min_cycle;Max_cycle;Signal;HPM_P1;HPM_P2
2023/01/12 00:01:28;;;;;;;;;;;19.70;46.20;;;;;;5060454;28;19926;-67
2023/01/12 00:03:55;;;;;;;;;;;19.80;46.30;;;;;;5057975;28;19924;-66
2023/01/12 00:06:22;;;;;;;;;;;19.70;46.20;;;;;;5064079;28;19974;-67
2023/01/12 00:08:49;;;;;;;;;;;19.80;46.30;;;;;;5058832;28;19920;-68
2023/01/12 00:11:16;;;;;;;;;;;19.70;46.20;;;;;;5057942;28;19966;-67
2023/01/12 00:13:43;;;;;;;;;;;19.70;46.20;;;;;;5080638;28;19920;-68
2023/01/12 00:18:59;;;;;;;;;;;19.70;46.20;;;;;;5076486;28;19920;-68
2023/01/12 00:21:26;;;;;;;;;;;19.70;46.20;;;;;;5060734;28;19920;-68
2023/01/12 00:23:52;;;;;;;;;;;19.70;46.20;;;;;;5058664;28;19979;-67
2023/01/12 00:26:19;;;;;;;;;;;19.70;46.20;;;;;;5080171;28;19924;-67
2023/01/12 00:28:46;;;;;;;;;;;19.70;46.20;;;;;;5063962;28;19927;-67
2023/01/12 00:31:13;;;;;;;;;;;19.70;46.20;;;;;;5060769;28;19970;-67
2023/01/12 00:33:39;;;;;;;;;;;19.70;46.20;;;;;;5078749;28;19920;-68
2023/01/12 00:36:08;;;;;;;;;;;19.70;46.20;;;;;;5062024;28;20340;-67
2023/01/12 00:38:35;;;;;;;;;;;19.70;46.20;;;;;;5058261;28;19939;-68
2023/01/12 00:41:04;;;;;;;;;;;19.70;46.20;;;;;;5061240;28;20014;-68
2023/01/12 00:46:15;;;;;;;;;;;19.70;46.20;;;;;;5060147;28;19920;-68
2023/01/12 00:48:42;;;;;;;;;;;19.70;46.20;;;;;;5060700;28;20000;-68
2023/01/12 00:51:10;;;;;;;;;;;19.70;46.20;;;;;;5062814;28;19974;-68
2023/01/12 00:53:37;;;;;;;;;;;19.70;46.20;;;;;;5067429;28;19924;-68
2023/01/12 00:56:04;;;;;;;;;;;19.70;46.20;;;;;;5066629;28;19978;-67
2023/01/12 00:58:31;;;;;;;;;;;19.70;46.20;;;;;;5064298;28;19932;-67
2023/01/12 01:01:03;;;;;;;;;;;19.70;46.20;;;;;;5065125;28;19921;-66
2023/01/12 01:03:30;;;;;;;;;;;19.70;46.20;;;;;;5061945;28;19924;-66
2023/01/12 01:06:01;;;;;;;;;;;19.70;46.20;;;;;;5063243;28;20003;-66
2023/01/12 01:08:29;;;;;;;;;;;19.70;46.20;;;;;;5082391;28;19924;-66
2023/01/12 01:11:01;;;;;;;;;;;19.70;46.20;;;;;;5058721;28;19932;-66
2023/01/12 01:13:27;;;;;;;;;;;19.70;46.20;;;;;;5065385;28;19970;-67
2023/01/12 01:15:54;;;;;;;;;;;19.70;46.10;;;;;;5079491;28;20247;-67
2023/01/12 01:18:21;;;;;;;;;;;19.70;46.20;;;;;;5066418;28;19927;-67
2023/01/12 01:20:48;;;;;;;;;;;19.70;46.20;;;;;;5063232;28;20377;-67
2023/01/12 01:23:15;;;;;;;;;;;19.70;46.20;;;;;;5064981;28;19951;-67
2023/01/12 01:25:43;;;;;;;;;;;19.70;46.20;;;;;;5065815;28;19920;-66
2023/01/12 01:28:10;;;;;;;;;;;19.60;46.10;;;;;;5066815;28;20270;-66
2023/01/12 01:30:38;;;;;;;;;;;19.60;46.10;;;;;;5064892;28;19924;-66
2023/01/12 01:33:04;;;;;;;;;;;19.70;46.10;;;;;;5066281;28;19928;-66
2023/01/12 01:35:31;;;;;;;;;;;19.60;46.10;;;;;;5082469;28;19920;-66
2023/01/12 01:37:58;;;;;;;;;;;19.70;46.10;;;;;;5064522;28;19943;-67
2023/01/12 01:40:25;;;;;;;;;;;19.60;46.10;;;;;;5064677;28;20282;-66
2023/01/12 01:42:53;;;;;;;;;;;19.60;46.10;;;;;;5082550;28;19920;-67
2023/01/12 01:45:20;;;;;;;;;;;19.60;46.10;;;;;;5078906;28;19924;-67
2023/01/12 01:47:47;;;;;;;;;;;19.60;46.10;;;;;;5065742;28;20221;-66
2023/01/12 01:50:15;;;;;;;;;;;19.60;46.10;;;;;;5060104;28;20278;-67
2023/01/12 01:52:42;;;;;;;;;;;19.60;46.10;;;;;;5064343;28;19925;-67
2023/01/12 01:55:10;;;;;;;;;;;19.60;46.10;;;;;;5066548;28;19920;-67
2023/01/12 01:57:40;;;;;;;;;;;19.60;46.10;;;;;;5064176;28;20274;-67
2023/01/12 02:00:10;;;;;;;;;;;19.60;46.10;;;;;;5066255;28;19939;-68
2023/01/12 02:02:36;;;;;;;;;;;19.60;46.10;;;;;;5065711;28;19978;-67
2023/01/12 02:05:03;;;;;;;;;;;19.60;46.10;;;;;;5059069;28;19927;-67
2023/01/12 02:07:30;;;;;;;;;;;19.60;46.10;;;;;;5066130;28;19966;-67
2023/01/12 02:09:57;;;;;;;;;;;19.60;46.10;;;;;;5065405;28;19928;-67
2023/01/12 02:17:57;;;;;;;;;;;19.60;46.10;;;;;;5083253;28;19943;-67
2023/01/12 02:20:47;;;;;;;;;;;19.60;46.10;;;;;;5062695;28;19924;-67
2023/01/12 02:23:32;;;;;;;;;;;19.60;46.10;;;;;;5080935;28;19932;-66
2023/01/12 02:26:17;;;;;;;;;;;19.60;46.10;;;;;;5062886;28;19920;-68
2023/01/12 02:28:56;;;;;;;;;;;19.60;46.10;;;;;;5071604;28;19950;-66
2023/01/12 02:31:27;;;;;;;;;;;19.60;46.00;;;;;;5082513;28;20439;-67
2023/01/12 02:33:57;;;;;;;;;;;19.60;46.00;;;;;;5063390;28;19985;-67
2023/01/12 02:36:25;;;;;;;;;;;19.60;46.00;;;;;;5083394;28;19920;-66
2023/01/12 02:38:52;;;;;;;;;;;19.60;46.00;;;;;;5059891;28;19977;-68
2023/01/12 02:42:39;;;;;;;;;;;19.60;46.10;;;;;;5062142;28;19966;-67
2023/01/12 02:44:08;;;;;;;;;;;19.60;46.10;;;;;;5062856;28;19927;-67
2023/01/12 02:46:36;;;;;;;;;;;19.60;46.00;;;;;;5062651;28;19937;-68
2023/01/12 02:49:03;;;;;;;;;;;19.60;46.10;;;;;;5065258;28;19920;-67
2023/01/12 02:51:32;;;;;;;;;;;19.60;46.00;;;;;;5059317;28;19981;-67
2023/01/12 02:54:00;;;;;;;;;;;19.60;46.00;;;;;;5062660;28;20347;-67
2023/01/12 02:56:28;;;;;;;;;;;19.60;46.00;;;;;;5080656;28;19994;-68
2023/01/12 02:58:56;;;;;;;;;;;19.60;46.00;;;;;;5066002;28;19932;-67
2023/01/12 03:01:22;;;;;;;;;;;19.60;46.00;;;;;;5055635;28;19932;-66
2023/01/12 03:03:50;;;;;;;;;;;19.60;46.10;;;;;;5061991;28;19928;-67
2023/01/12 03:06:17;;;;;;;;;;;19.60;46.10;;;;;;5064901;28;19963;-66
2023/01/12 03:08:44;;;;;;;;;;;19.60;46.00;;;;;;5063517;28;19971;-67
2023/01/12 03:11:12;;;;;;;;;;;19.60;46.10;;;;;;5061439;28;19942;-66
2023/01/12 03:13:39;;;;;;;;;;;19.60;46.00;;;;;;5064298;28;19920;-68
2023/01/12 03:16:06;;;;;;;;;;;19.60;46.00;;;;;;5060441;28;19924;-68
2023/01/12 03:18:33;;;;;;;;;;;19.60;46.00;;;;;;5061705;28;19920;-66
2023/01/12 03:21:02;;;;;;;;;;;19.60;46.00;;;;;;5077125;28;19980;-67
2023/01/12 03:23:29;;;;;;;;;;;19.60;46.10;;;;;;5081590;28;19920;-67
2023/01/12 03:25:56;;;;;;;;;;;19.60;46.00;;;;;;5059746;28;19924;-68
2023/01/12 03:28:23;;;;;;;;;;;19.60;46.10;;;;;;5060935;28;19920;-67
2023/01/12 03:30:52;;;;;;;;;;;19.60;46.00;;;;;;5060293;28;19924;-67
2023/01/12 03:33:19;;;;;;;;;;;19.60;46.00;;;;;;5062616;28;19920;-68
2023/01/12 03:35:48;;;;;;;;;;;19.60;46.00;;;;;;5063118;28;20355;-67
2023/01/12 03:38:19;;;;;;;;;;;19.60;46.00;;;;;;5062392;28;20237;-67
2023/01/12 03:40:46;;;;;;;;;;;19.60;46.00;;;;;;5061891;28;19928;-68
2023/01/12 03:43:14;;;;;;;;;;;19.60;46.00;;;;;;5061414;28;20319;-67
2023/01/12 03:45:45;;;;;;;;;;;19.60;46.00;;;;;;5063722;28;19920;-67
2023/01/12 03:48:13;;;;;;;;;;;19.60;46.00;;;;;;5061669;28;19920;-66
2023/01/12 03:50:41;;;;;;;;;;;19.60;46.00;;;;;;5061808;28;19920;-66
2023/01/12 03:53:08;;;;;;;;;;;19.60;46.00;;;;;;5064481;28;19920;-67
2023/01/12 03:55:36;;;;;;;;;;;19.60;46.00;;;;;;5061171;28;20411;-67
2023/01/12 03:58:03;;;;;;;;;;;19.60;46.00;;;;;;5059624;28;19920;-67
2023/01/12 04:00:29;;;;;;;;;;;19.60;46.00;;;;;;5059111;28;19920;-67
2023/01/12 04:03:03;;;;;;;;;;;19.60;46.00;;;;;;5064265;28;19932;-67
2023/01/12 04:05:30;;;;;;;;;;;19.60;46.00;;;;;;5062970;28;20269;-66
2023/01/12 04:07:57;;;;;;;;;;;19.60;46.00;;;;;;5063915;28;20174;-68
2023/01/12 04:10:23;;;;;;;;;;;19.60;46.00;;;;;;5061725;28;19924;-68
2023/01/12 04:12:51;;;;;;;;;;;19.60;46.00;;;;;;5061553;28;19921;-67
2023/01/12 04:15:18;;;;;;;;;;;19.60;46.00;;;;;;5061116;28;19922;-66
2023/01/12 04:17:45;;;;;;;;;;;19.60;46.00;;;;;;5063135;28;19920;-68
2023/01/12 04:20:12;;;;;;;;;;;19.60;46.00;;;;;;5076953;28;19921;-68
2023/01/12 04:22:44;;;;;;;;;;;19.60;46.00;;;;;;5062809;28;19919;-67
2023/01/12 04:25:11;;;;;;;;;;;19.60;46.00;;;;;;5062018;28;19997;-66
2023/01/12 04:27:40;;;;;;;;;;;19.60;46.00;;;;;;5059967;28;19921;-67
2023/01/12 04:30:09;;;;;;;;;;;19.60;46.00;;;;;;5060561;28;20018;-67
2023/01/12 04:32:36;;;;;;;;;;;19.60;46.00;;;;;;5061860;28;19923;-67
2023/01/12 04:35:03;;;;;;;;;;;19.60;46.00;;;;;;5060456;28;19981;-68
2023/01/12 04:37:31;;;;;;;;;;;19.60;46.00;;;;;;5079061;28;19924;-68
2023/01/12 04:39:58;;;;;;;;;;;19.50;45.80;;;;;;5061122;28;19932;-67
2023/01/12 04:45:11;;;;;;;;;;;19.50;45.90;;;;;;5056774;28;19927;-67
2023/01/12 04:47:38;;;;;;;;;;;19.60;46.00;;;;;;5063672;28;19936;-67
2023/01/12 04:50:05;;;;;;;;;;;19.60;46.00;;;;;;5060698;28;20403;-67
2023/01/12 04:52:32;;;;;;;;;;;19.50;45.80;;;;;;5060767;28;19967;-67
2023/01/12 04:54:58;;;;;;;;;;;19.60;45.90;;;;;;5076617;28;19966;-66
2023/01/12 04:57:25;;;;;;;;;;;19.50;45.80;;;;;;5060376;28;19955;-64
2023/01/12 04:59:52;;;;;;;;;;;19.60;46.00;;;;;;5064400;28;19954;-66
2023/01/12 05:02:20;;;;;;;;;;;19.60;45.90;;;;;;5058244;28;19967;-67
2023/01/12 05:04:47;;;;;;;;;;;19.50;45.90;;;;;;5059792;28;19925;-66
2023/01/12 05:07:14;;;;;;;;;;;19.50;45.90;;;;;;5079839;28;19920;-67
2023/01/12 05:12:25;;;;;;;;;;;19.50;45.80;;;;;;5057487;28;19920;-67
2023/01/12 05:14:52;;;;;;;;;;;19.50;45.80;;;;;;5058710;28;19981;-66
2023/01/12 05:17:18;;;;;;;;;;;19.50;45.90;;;;;;5060685;28;19932;-66
2023/01/12 05:19:48;;;;;;;;;;;19.60;46.00;;;;;;5065702;28;19952;-67
2023/01/12 05:22:15;;;;;;;;;;;19.50;45.90;;;;;;5059311;28;19956;-67
2023/01/12 05:24:41;;;;;;;;;;;19.50;45.80;;;;;;5062628;28;19934;-67
2023/01/12 05:27:08;;;;;;;;;;;19.50;45.90;;;;;;5061426;28;19978;-67
2023/01/12 05:29:35;;;;;;;;;;;19.50;45.90;;;;;;5058737;28;19965;-67
2023/01/12 05:32:02;;;;;;;;;;;19.50;45.90;;;;;;5060025;28;19920;-67
2023/01/12 05:34:28;;;;;;;;;;;19.50;45.90;;;;;;5062613;28;19920;-67
2023/01/12 05:36:57;;;;;;;;;;;19.50;45.90;;;;;;5063721;28;19920;-68
2023/01/12 05:39:24;;;;;;;;;;;19.50;45.90;;;;;;5064407;28;20366;-67
2023/01/12 05:44:35;;;;;;;;;;;19.50;45.90;;;;;;5064790;28;19927;-67
2023/01/12 05:47:01;;;;;;;;;;;19.50;45.80;;;;;;5066508;28;19920;-67
2023/01/12 05:49:28;;;;;;;;;;;19.50;45.90;;;;;;5064793;28;19983;-67
2023/01/12 05:51:56;;;;;;;;;;;19.50;45.90;;;;;;5064147;28;19927;-66
2023/01/12 05:54:23;;;;;;;;;;;19.50;45.90;;;;;;5065831;28;19924;-66
2023/01/12 05:56:50;;;;;;;;;;;19.50;45.90;;;;;;5063903;28;20348;-66
2023/01/12 05:59:17;;;;;;;;;;;19.50;45.80;;;;;;5063546;28;19920;-66
2023/01/12 06:01:43;;;;;;;;;;;19.50;45.90;;;;;;5073887;28;19921;-68
2023/01/12 06:04:10;;;;;;;;;;;19.50;45.90;;;;;;5057544;28;19950;-66
2023/01/12 06:06:37;;;;;;;;;;;19.50;45.90;;;;;;5068188;28;19920;-66
2023/01/12 06:09:07;;;;;;;;;;;19.50;45.80;;;;;;5059272;28;19920;-67
2023/01/12 06:14:18;;;;;;;;;;;19.50;45.80;;;;;;5056682;28;19931;-67
2023/01/12 06:16:44;;;;;;;;;;;19.50;45.80;;;;;;5064337;28;19929;-67
2023/01/12 06:19:11;;;;;;;;;;;19.50;45.80;;;;;;5072289;28;19938;-66
2023/01/12 06:21:39;;;;;;;;;;;19.50;45.80;;;;;;5070338;28;20039;-68
2023/01/12 06:24:08;;;;;;;;;;;19.50;45.80;;;;;;5065932;28;19920;-68
2023/01/12 06:26:35;;;;;;;;;;;19.50;45.80;;;;;;5076973;28;19974;-69
2023/01/12 06:29:02;;;;;;;;;;;19.50;45.80;;;;;;5065355;28;19927;-68
2023/01/12 06:31:29;;;;;;;;;;;19.60;45.90;;;;;;5061335;28;19927;-68
2023/01/12 06:33:56;;;;;;;;;;;19.60;45.90;;;;;;5062912;28;19932;-68
2023/01/12 06:36:23;;;;;;;;;;;19.50;45.80;;;;;;5066918;28;19977;-66
2023/01/12 06:38:50;;;;;;;;;;;19.60;45.90;;;;;;5067213;28;19920;-70
2023/01/12 06:44:02;;;;;;;;;;;19.60;45.90;;;;;;5061702;28;20066;-68
2023/01/12 06:46:28;;;;;;;;;;;19.60;45.90;;;;;;5060676;28;19970;-69
2023/01/12 06:48:55;;;;;;;;;;;19.60;45.90;;;;;;5064092;28;19933;-67
2023/01/12 06:51:22;;;;;;;;;;;19.60;46.00;;;;;;5080039;28;20341;-67
2023/01/12 06:53:49;;;;;;;;;;;19.60;46.00;;;;;;5064306;28;19994;-68
2023/01/12 06:56:17;;;;;;;;;;;19.60;46.00;;;;;;5064786;28;19927;-68
2023/01/12 06:58:44;;;;;;;;;;;19.60;46.00;;;;;;5062141;28;19927;-67
2023/01/12 07:01:11;;;;;;;;;;;19.60;46.00;;;;;;5062093;28;19963;-69
2023/01/12 07:03:39;;;;;;;;;;;19.60;46.00;;;;;;5064458;28;20395;-68
2023/01/12 07:06:06;;;;;;;;;;;19.60;46.00;;;;;;5063467;28;19928;-68
2023/01/12 07:08:33;;;;;;;;;;;19.60;46.00;;;;;;5080513;28;19920;-68
2023/01/12 07:11:00;;;;;;;;;;;19.60;46.00;;;;;;5068279;28;19920;-67
2023/01/12 07:13:28;;;;;;;;;;;19.60;46.00;;;;;;5057340;28;19970;-68
2023/01/12 07:15:57;;;;;;;;;;;19.60;46.00;;;;;;5084124;28;19920;-68
2023/01/12 07:18:24;;;;;;;;;;;19.60;46.00;;;;;;5069832;28;20380;-68
2023/01/12 07:20:51;;;;;;;;;;;19.60;46.00;;;;;;5072357;28;19921;-68
2023/01/12 07:23:17;;;;;;;;;;;19.60;46.00;;;;;;5053304;28;19950;-68
2023/01/12 07:25:44;;;;;;;;;;;19.60;46.10;;;;;;5081557;28;19955;-68
2023/01/12 07:28:11;;;;;;;;;;;19.60;46.10;;;;;;5066643;28;19966;-68
2023/01/12 07:30:39;;;;;;;;;;;19.60;46.10;;;;;;5063553;28;19924;-68
2023/01/12 07:33:07;;;;;;;;;;;19.60;46.10;;;;;;5061739;28;19920;-67
2023/01/12 07:35:33;;;;;;;;;;;19.60;46.10;;;;;;5058723;28;19920;-66
2023/01/12 07:38:00;;;;;;;;;;;19.60;46.10;;;;;;5063278;28;19970;-67
2023/01/12 07:40:27;;;;;;;;;;;19.60;46.10;;;;;;5081915;28;19969;-68
2023/01/12 07:42:57;;;;;;;;;;;19.60;46.10;;;;;;5060737;28;19939;-67
2023/01/12 07:45:23;;;;;;;;;;;19.60;46.20;;;;;;5063274;28;20423;-68
2023/01/12 07:47:53;;;;;;;;;;;19.60;46.10;;;;;;5055379;28;19925;-67
2023/01/12 07:50:20;;;;;;;;;;;19.60;46.20;;;;;;5063319;28;19933;-68
2023/01/12 07:52:47;;;;;;;;;;;19.60;46.20;;;;;;5058981;28;19921;-67
2023/01/12 07:55:15;;;;;;;;;;;19.60;46.20;;;;;;5053521;28;19956;-67
2023/01/12 07:57:42;;;;;;;;;;;19.60;46.20;;;;;;5055895;28;19994;-67
2023/01/12 08:18:46;;;;;;;;;;;19.60;46.20;;;;;;5052339;28;19916;-68
2023/01/12 08:21:15;;;;;;;;;;;19.60;46.20;;;;;;5053210;28;19970;-67
2023/01/12 08:23:42;;;;;;;;;;;19.60;46.20;;;;;;5053042;28;19924;-68
2023/01/12 08:26:11;;;;;;;;;;;19.60;46.20;;;;;;5053389;28;19932;-68
2023/01/12 08:28:38;;;;;;;;;;;19.60;46.30;;;;;;5069354;28;19990;-69
2023/01/12 08:31:04;;;;;;;;;;;19.60;46.20;;;;;;5053191;28;19932;-70
2023/01/12 08:33:31;;;;;;;;;;;19.60;46.20;;;;;;5053229;28;20277;-68
2023/01/12 08:35:58;;;;;;;;;;;19.60;46.20;;;;;;5052744;28;19920;-68
2023/01/12 08:38:27;;;;;;;;;;;19.60;46.20;;;;;;5053499;28;19926;-68
2023/01/12 08:46:21;;;;;;;;;;;19.60;46.20;;;;;;5053081;28;19928;-67
2023/01/12 08:48:48;;;;;;;;;;;19.60;46.20;;;;;;5071034;28;19973;-67
2023/01/12 08:51:15;;;;;;;;;;;19.60;46.20;;;;;;5053775;28;19920;-68
2023/01/12 08:53:43;;;;;;;;;;;19.60;46.20;;;;;;5053171;28;19921;-67
2023/01/12 08:56:10;;;;;;;;;;;19.60;46.20;;;;;;5053361;28;19956;-68
2023/01/12 08:58:37;;;;;;;;;;;19.60;46.20;;;;;;5068159;28;19920;-68
2023/01/12 09:01:07;;;;;;;;;;;19.60;46.20;;;;;;5069473;28;19925;-68
2023/01/12 09:03:34;;;;;;;;;;;19.60;46.30;;;;;;5070615;28;19929;-68
2023/01/12 09:06:08;;;;;;;;;;;19.60;46.30;;;;;;5068514;28;19962;-68
2023/01/12 09:08:34;;;;;;;;;;;19.60;46.30;;;;;;5054036;28;19921;-68
2023/01/12 09:11:03;;;;;;;;;;;19.60;46.20;;;;;;5061694;28;20011;-68
2023/01/12 09:13:30;;;;;;;;;;;19.60;46.20;;;;;;5057947;28;19928;-67
2023/01/12 09:15:57;;;;;;;;;;;19.60;46.20;;;;;;5056743;28;19943;-69
2023/01/12 09:18:24;;;;;;;;;;;19.60;46.30;;;;;;5073855;28;19927;-69
2023/01/12 09:20:51;;;;;;;;;;;19.60;46.90;;;;;;5074091;28;19978;-68
2023/01/12 09:23:17;;;;;;;;;;;19.60;46.20;;;;;;5074619;28;19928;-69
2023/01/12 09:25:44;;;;;;;;;;;19.60;46.30;;;;;;5056189;28;19928;-68
2023/01/12 09:28:12;;;;;;;;;;;19.60;46.30;;;;;;5066232;28;19944;-69
2023/01/12 09:30:39;;;;;;;;;;;19.60;46.30;;;;;;5072914;28;19920;-69
2023/01/12 09:33:06;;;;;;;;;;;19.60;46.30;;;;;;5073483;28;19978;-68
2023/01/12 09:35:32;;;;;;;;;;;19.60;46.30;;;;;;5073946;28;19920;-68
2023/01/12 09:38:00;;;;;;;;;;;19.60;46.30;;;;;;5049468;28;19929;-66
2023/01/12 09:40:27;;;;;;;;;;;19.60;46.30;;;;;;5045160;28;19970;-68
2023/01/12 09:48:24;;;;;;;;;;;19.60;46.30;;;;;;5050121;28;19933;-68
2023/01/12 09:50:51;;;;;;;;;;;19.60;46.30;;;;;;5053068;28;19924;-69
2023/01/12 09:53:18;;;;;;;;;;;19.60;46.30;;;;;;5047171;28;19967;-67
2023/01/12 09:55:46;;;;;;;;;;;19.60;46.30;;;;;;5071529;28;19974;-67
2023/01/12 09:58:16;;;;;;;;;;;19.60;46.30;;;;;;5067017;28;20037;-67
2023/01/12 10:00:44;;;;;;;;;;;19.60;46.30;;;;;;5058342;28;19925;-67
2023/01/12 10:03:14;;;;;;;;;;;19.60;46.30;;;;;;5051925;28;19920;-68
2023/01/12 10:05:42;;;;;;;;;;;19.60;46.30;;;;;;5055382;28;19966;-67
2023/01/12 10:08:10;;;;;;;;;;;19.60;46.30;;;;;;5054376;28;20250;-68
2023/01/12 10:10:37;;;;;;;;;;;19.60;46.30;;;;;;5054667;28;19983;-66
2023/01/12 10:13:04;;;;;;;;;;;19.60;46.30;;;;;;5061273;28;19966;-68
2023/01/12 10:15:35;;;;;;;;;;;19.60;46.30;;;;;;5052557;28;19921;-68
2023/01/12 10:18:04;;;;;;;;;;;19.60;46.30;;;;;;5037710;28;19967;-69
2023/01/12 10:20:32;;;;;;;;;;;19.60;46.30;;;;;;5053908;28;19944;-69
2023/01/12 10:22:59;;;;;;;;;;;19.60;46.30;;;;;;5051652;28;19954;-68
2023/01/12 10:25:27;;;;;;;;;;;19.60;46.30;;;;;;5057069;28;19939;-68
2023/01/12 10:27:55;;;;;;;;;;;19.60;46.30;;;;;;5053698;28;20265;-68
2023/01/12 10:30:24;;;;;;;;;;;19.60;46.30;;;;;;5054377;28;19925;-67
2023/01/12 10:32:51;;;;;;;;;;;19.60;46.30;;;;;;5053373;28;19974;-67
2023/01/12 10:35:19;;;;;;;;;;;19.60;46.30;;;;;;5050622;28;19933;-69
2023/01/12 10:37:47;;;;;;;;;;;19.60;46.30;;;;;;5054359;28;19924;-68
2023/01/12 10:40:19;;;;;;;;;;;19.60;46.30;;;;;;5071699;28;19982;-68
2023/01/12 10:45:32;;;;;;;;;;;19.60;46.30;;;;;;5069747;28;19928;-68
2023/01/12 10:47:59;;;;;;;;;;;19.60;46.30;;;;;;5049138;28;19927;-68
2023/01/12 10:50:28;;;;;;;;;;;19.60;46.30;;;;;;5051803;28;19921;-69
2023/01/12 10:52:56;;;;;;;;;;;19.60;46.30;;;;;;5068362;28;19966;-68
2023/01/12 10:55:23;;;;;;;;;;;19.60;46.30;;;;;;5056018;28;19970;-69
2023/01/12 10:57:50;;;;;;;;;;;19.60;46.30;;;;;;5038844;28;19932;-69
2023/01/12 11:00:19;;;;;;;;;;;19.60;46.30;;;;;;5058212;28;19924;-69
2023/01/12 11:02:46;;;;;;;;;;;19.60;46.40;;;;;;5056700;28;19984;-69
2023/01/12 11:05:25;;;;;;;;;;;19.60;46.40;;;;;;5045434;28;20178;-69
2023/01/12 11:07:54;;;;;;;;;;;19.60;46.40;;;;;;5053402;28;19978;-69
2023/01/12 11:10:26;;;;;;;;;;;19.60;46.30;;;;;;5050427;28;19920;-66
2023/01/12 11:12:53;;;;;;;;;;;19.70;46.40;;;;;;5048190;28;19924;-68
2023/01/12 11:15:20;;;;;;;;;;;19.60;46.40;;;;;;5066920;28;19929;-66
2023/01/12 11:17:49;;;;;;;;;;;19.60;46.40;;;;;;5059097;28;19920;-68
2023/01/12 11:20:18;;;;;;;;;;;19.60;46.40;;;;;;5051189;28;19920;-68
2023/01/12 11:22:45;;;;;;;;;;;19.60;46.40;;;;;;5064636;28;19920;-67
2023/01/12 11:25:14;;;;;;;;;;;19.60;46.40;;;;;;5058233;28;19924;-68
2023/01/12 11:27:42;;;;;;;;;;;19.60;46.40;;;;;;5058666;28;20563;-68
2023/01/12 11:30:14;;;;;;;;;;;19.60;46.40;;;;;;5058691;28;19953;-68
2023/01/12 11:32:42;;;;;;;;;;;19.60;46.40;;;;;;5080064;28;19927;-69
2023/01/12 11:35:25;;;;;;;;;;;19.60;46.40;;;;;;5061210;28;19924;-68
2023/01/12 11:37:52;;;;;;;;;;;19.60;46.40;;;;;;5047912;28;19929;-69
2023/01/12 11:40:24;;;;;;;;;;;19.70;46.40;;;;;;5048858;28;19974;-69
2023/01/12 11:45:39;;;;;;;;;;;19.70;46.50;;;;;;5052900;28;19928;-69
2023/01/12 11:48:07;;;;;;;;;;;19.60;46.40;;;;;;5060848;28;19924;-68
2023/01/12 11:50:35;;;;;;;;;;;19.60;46.40;;;;;;5052820;28;19963;-67
2023/01/12 11:53:04;;;;;;;;;;;19.70;46.50;;;;;;5069170;28;20304;-69
2023/01/12 11:55:45;;;;;;;;;;;19.70;46.50;;;;;;5051376;28;19920;-69
2023/01/12 11:58:13;;;;;;;;;;;19.70;46.40;;;;;;5052526;28;20503;-69
2023/01/12 12:00:42;;;;;;;;;;;19.70;46.40;;;;;;5051815;28;19925;-69
2023/01/12 12:03:15;;;;;;;;;;;19.70;46.40;;;;;;5055245;28;20015;-69
2023/01/12 12:05:44;;;;;;;;;;;19.70;46.50;;;;;;5059150;28;19985;-70
2023/01/12 12:08:14;;;;;;;;;;;19.70;46.50;;;;;;5053755;28;19966;-69
2023/01/12 12:10:43;;;;;;;;;;;19.60;46.40;;;;;;5067386;28;20393;-68
2023/01/12 12:13:16;;;;;;;;;;;19.70;46.50;;;;;;5052317;28;19933;-68
2023/01/12 12:15:45;;;;;;;;;;;19.70;46.40;;;;;;5058349;28;19928;-68
2023/01/12 12:18:14;;;;;;;;;;;19.70;46.40;;;;;;5066015;28;19946;-68
2023/01/12 12:20:42;;;;;;;;;;;19.70;46.40;;;;;;5058612;28;19921;-69
2023/01/12 12:23:17;;;;;;;;;;;19.70;46.50;;;;;;5067434;28;19939;-69
2023/01/12 12:25:47;;;;;;;;;;;19.60;46.40;;;;;;5052142;28;19925;-69
2023/01/12 12:28:21;;;;;;;;;;;19.70;46.50;;;;;;5078072;28;19928;-69
2023/01/12 12:30:58;;;;;;;;;;;19.70;46.50;;;;;;5050744;28;19925;-68
2023/01/12 12:33:26;;;;;;;;;;;19.70;46.50;;;;;;5043563;28;19967;-68
2023/01/12 12:35:59;;;;;;;;;;;19.70;46.50;;;;;;5060138;28;19920;-68
2023/01/12 12:38:28;;;;;;;;;;;19.70;46.50;;;;;;5048143;28;19921;-67
2023/01/12 12:46:29;;;;;;;;;;;19.70;46.50;;;;;;5057773;28;20012;-67
2023/01/12 12:48:57;;;;;;;;;;;19.70;46.50;;;;;;5073098;28;19920;-69
2023/01/12 12:51:26;;;;;;;;;;;19.70;46.50;;;;;;5048343;28;19925;-68
2023/01/12 12:53:53;;;;;;;;;;;19.70;46.50;;;;;;5059509;28;19927;-68
2023/01/12 12:56:22;;;;;;;;;;;19.70;46.50;;;;;;5071929;28;19924;-68
2023/01/12 12:58:48;;;;;;;;;;;19.70;46.50;;;;;;5055330;28;19928;-67
2023/01/12 13:01:42;;;;;;;;;;;19.70;46.50;;;;;;5052587;28;19963;-68
2023/01/12 13:04:10;;;;;;;;;;;19.70;46.50;;;;;;5049679;28;19929;-69
2023/01/12 13:06:37;;;;;;;;;;;19.70;46.50;;;;;;5055782;28;19920;-68
2023/01/12 13:09:05;;;;;;;;;;;19.70;46.50;;;;;;5055876;28;19936;-68
2023/01/12 13:11:52;;;;;;;;;;;19.70;46.50;;;;;;5052234;28;20015;-67
2023/01/12 13:14:20;;;;;;;;;;;19.70;46.50;;;;;;5053638;28;19921;-69
2023/01/12 13:16:47;;;;;;;;;;;19.70;46.50;;;;;;5073768;28;19920;-68
2023/01/12 13:19:15;;;;;;;;;;;19.70;46.50;;;;;;5049910;28;19936;-67
2023/01/12 13:21:54;;;;;;;;;;;19.70;46.50;;;;;;5055070;28;19924;-67
2023/01/12 13:24:25;;;;;;;;;;;19.70;46.50;;;;;;5055622;28;20446;-68
2023/01/12 13:26:54;;;;;;;;;;;19.70;46.60;;;;;;5057902;28;20397;-68
2023/01/12 13:29:38;;;;;;;;;;;19.70;46.50;;;;;;5054688;28;19974;-65
2023/01/12 13:32:26;;;;;;;;;;;19.70;46.50;;;;;;5068796;28;19928;-67
2023/01/12 13:34:53;;;;;;;;;;;19.70;46.60;;;;;;5071295;28;19924;-68
2023/01/12 13:37:26;;;;;;;;;;;19.70;46.50;;;;;;5072308;28;19981;-68
2023/01/12 13:39:55;;;;;;;;;;;19.70;46.60;;;;;;5060884;28;19960;-68
2023/01/12 13:45:11;;;;;;;;;;;19.70;46.60;;;;;;5054170;28;19940;-68
2023/01/12 13:47:37;;;;;;;;;;;19.70;46.60;;;;;;5050700;28;19927;-68
2023/01/12 13:50:05;;;;;;;;;;;19.70;46.60;;;;;;5077033;28;19924;-69
2023/01/12 13:52:32;;;;;;;;;;;19.70;46.60;;;;;;5051094;28;19921;-69
2023/01/12 13:54:59;;;;;;;;;;;19.70;46.60;;;;;;5056556;28;19963;-67
2023/01/12 13:57:26;;;;;;;;;;;19.70;46.60;;;;;;5053389;28;19924;-67
2023/01/12 13:59:57;;;;;;;;;;;19.70;46.60;;;;;;5052217;28;19932;-67
2023/01/12 14:02:25;;;;;;;;;;;19.70;46.60;;;;;;5052104;28;19960;-68
2023/01/12 14:04:56;;;;;;;;;;;19.70;46.60;;;;;;5051370;28;19932;-68
2023/01/12 14:07:33;;;;;;;;;;;19.70;46.60;;;;;;5052733;28;19929;-68
2023/01/12 14:10:02;;;;;;;;;;;19.70;46.60;;;;;;5060140;28;19963;-66
2023/01/12 14:12:47;;;;;;;;;;;19.70;46.60;;;;;;5053161;28;19920;-68
2023/01/12 14:18:05;;;;;;;;;;;19.70;46.70;;;;;;5054209;28;19928;-67
2023/01/12 14:20:32;;;;;;;;;;;19.70;46.60;;;;;;5051456;28;20309;-68
2023/01/12 14:23:08;;;;;;;;;;;19.70;46.60;;;;;;5052764;28;19927;-68
2023/01/12 14:25:34;;;;;;;;;;;19.70;46.60;;;;;;5055411;28;19996;-67
2023/01/12 14:28:01;;;;;;;;;;;19.70;46.70;;;;;;5053918;28;19921;-68
2023/01/12 14:30:28;;;;;;;;;;;19.70;46.70;;;;;;5053546;28;19924;-68
2023/01/12 14:32:55;;;;;;;;;;;19.70;46.70;;;;;;5054640;28;19963;-68
2023/01/12 14:35:23;;;;;;;;;;;19.70;46.60;;;;;;5053473;28;19969;-68
2023/01/12 14:37:51;;;;;;;;;;;19.70;46.70;;;;;;5071557;28;19936;-69
2023/01/12 14:40:22;;;;;;;;;;;19.70;46.70;;;;;;5058346;28;19955;-67
2023/01/12 14:48:56;;;;;;;;;;;19.70;46.70;;;;;;4991383;28;20028;-67
2023/01/12 14:51:24;;;;;;;;;;;19.70;46.70;;;;;;5030031;28;20010;-67
2023/01/12 14:53:55;;;;;;;;;;;19.70;46.70;;;;;;5062812;28;20034;-66
2023/01/12 14:56:22;;;;;;;;;;;19.70;46.70;;;;;;5072846;28;19928;-68
2023/01/12 14:58:49;;;;;;;;;;;19.70;46.70;;;;;;5054070;28;19924;-69
2023/01/12 15:01:28;;;;;;;;;;;19.70;46.70;;;;;;5053705;28;19921;-68
2023/01/12 15:03:55;;;;;;;;;;;19.70;46.70;;;;;;5068356;28;20247;-70
2023/01/12 15:06:23;;;;;;;;;;;19.70;46.70;;;;;;5070290;28;19936;-71
2023/01/12 15:08:57;;;;;;;;;;;19.70;46.70;;;;;;5048490;28;19997;-69
2023/01/12 15:11:30;;;;;;;;;;;19.70;46.90;;;;;;5074374;28;19928;-66
2023/01/12 15:13:58;;;;;;;;;;;19.70;46.70;;;;;;5070056;28;19971;-69
2023/01/12 15:27:23;;;;;;;;;;;19.70;46.70;;;;;;5067114;28;19920;-68
2023/01/12 15:29:50;;;;;;;;;;;19.70;46.70;;;;;;5051085;28;19989;-67
2023/01/12 15:53:40;;;;;;;;;;;19.70;46.70;;;;;;5045959;28;19969;-70
2023/01/12 15:56:09;;;;;;;;;;;19.70;46.70;;;;;;5048435;28;19924;-68
2023/01/12 15:58:38;;;;;;;;;;;19.70;46.70;;;;;;5048735;28;20283;-69
2023/01/12 16:01:05;;;;;;;;;;;19.70;46.70;;;;;;5065750;28;19935;-68
2023/01/12 16:03:32;;;;;;;;;;;19.70;46.70;;;;;;5052462;28;19924;-69
2023/01/12 16:05:59;;;;;;;;;;;19.70;46.70;;;;;;5051356;28;20021;-69
2023/01/12 16:08:26;;;;;;;;;;;19.70;46.70;;;;;;5052178;28;19995;-67
2023/01/12 16:13:43;;;;;;;;;;;19.70;46.70;;;;;;5040021;28;19927;-68
2023/01/12 16:16:10;;;;;;;;;;;19.70;46.70;;;;;;5070355;28;20013;-68